createdAt,value
2023-02-23T00:01:51.451Z,100958.09
2023-02-23T00:04:20.929Z,100967.09
2023-02-23T00:06:47.806Z,100970.03
2023-02-23T00:09:23.162Z,100973.91
2023-02-23T00:11:57.382Z,100954.63
2023-02-23T00:14:28.924Z,100955.47
2023-02-23T00:16:56.426Z,100966.97
2023-02-23T00:19:24.712Z,100968.06
2023-02-23T00:21:52.176Z,100958.81
2023-02-23T00:24:19.807Z,100948.66
2023-02-23T00:26:47.845Z,100961.13
2023-02-23T00:29:17.280Z,100939.44
2023-02-23T00:31:45.406Z,100960.53
2023-02-23T00:34:14.500Z,100942.22
2023-02-23T00:36:41.535Z,100950.81
2023-02-23T00:39:26.723Z,100967.63
2023-02-23T00:41:53.913Z,100950.75
2023-02-23T00:44:21.756Z,100964.38
2023-02-23T00:46:51.804Z,100941.56
2023-02-23T00:49:19.777Z,100970.16
2023-02-23T00:51:46.951Z,100965.34
2023-02-23T00:54:14.774Z,100939.03
2023-02-23T00:56:41.452Z,100964.66
2023-02-23T00:59:08.170Z,100920.72
2023-02-23T01:01:35.157Z,100959.56
2023-02-23T01:04:02.197Z,100963.81
2023-02-23T01:06:28.914Z,100974.28
2023-02-23T01:08:57.640Z,100959.16
2023-02-23T01:11:33.620Z,100922.03
2023-02-23T01:14:01.132Z,100948.47
2023-02-23T01:16:31.286Z,100967.75
2023-02-23T01:19:00.673Z,100963.53
2023-02-23T01:21:33.474Z,100971.84
2023-02-23T01:24:00.875Z,100970.16
2023-02-23T01:26:36.684Z,100972.69
2023-02-23T01:29:10.569Z,100961.19
2023-02-23T01:31:42.632Z,100960.38
2023-02-23T01:34:11.920Z,100917.19
2023-02-23T01:36:42.192Z,100935.88
2023-02-23T01:39:12.041Z,100956.06
2023-02-23T01:41:38.835Z,100958.53
2023-02-23T01:44:08.767Z,100953.47
2023-02-23T01:46:39.108Z,100964.13
2023-02-23T01:49:09.112Z,100958.66
2023-02-23T01:51:41.197Z,100958.53
2023-02-23T01:54:15.890Z,100954.19
2023-02-23T01:56:49.190Z,100939.25
2023-02-23T01:59:17.912Z,100889.72
2023-02-23T02:01:45.178Z,100960.88
2023-02-23T02:04:16.551Z,100951.91
2023-02-23T02:06:46.962Z,100942.75
2023-02-23T02:09:19.635Z,100949.84
2023-02-23T02:11:54.040Z,100936.47
2023-02-23T02:14:25.871Z,100937.75
2023-02-23T02:17:10.657Z,100947.19
2023-02-23T02:19:58.820Z,100953.47
2023-02-23T02:22:34.323Z,100948.16
2023-02-23T02:25:00.727Z,100957.22
2023-02-23T02:27:46.647Z,100950.94
2023-02-23T02:30:13.945Z,100953.72
2023-02-23T02:33:05.256Z,100953.47
2023-02-23T02:35:46.910Z,100959.50
2023-02-23T02:38:43.062Z,100956.00
2023-02-23T02:41:20.965Z,100917.88
2023-02-23T02:44:00.864Z,100962.66
2023-02-23T02:46:34.941Z,100939.91
2023-02-23T02:49:09.203Z,100957.88
2023-02-23T02:51:43.617Z,100951.88
2023-02-23T02:54:28.946Z,100946.38
2023-02-23T02:57:00.406Z,100893.50
2023-02-23T02:59:46.310Z,100949.59
2023-02-23T03:02:36.533Z,100947.91
2023-02-23T03:05:22.047Z,100945.22
2023-02-23T03:08:44.848Z,100945.34
2023-02-23T03:11:33.015Z,100938.16
2023-02-23T03:14:36.809Z,100947.69
2023-02-23T03:17:47.581Z,100957.63
2023-02-23T03:20:53.174Z,100923.06
2023-02-23T03:23:56.646Z,100940.94
2023-02-23T03:26:56.831Z,100945.56
2023-02-23T03:30:02.009Z,100939.50
2023-02-23T03:32:56.383Z,100938.78
2023-02-23T03:35:47.419Z,100906.13
2023-02-23T03:39:08.261Z,100940.84
2023-02-23T03:41:55.738Z,100941.13
2023-02-23T03:44:48.001Z,100937.63
2023-02-23T03:47:35.995Z,100945.63
2023-02-23T03:50:25.453Z,100939.31
2023-02-23T03:53:19.404Z,100934.25
2023-02-23T03:56:11.244Z,100948.97
2023-02-23T03:59:03.531Z,100944.66
2023-02-23T04:01:51.100Z,100895.66
2023-02-23T04:04:37.021Z,100953.97
2023-02-23T04:07:25.913Z,100939.44
2023-02-23T04:10:11.245Z,100947.03
2023-02-23T04:12:59.639Z,100928.59
2023-02-23T04:15:47.589Z,100944.97
2023-02-23T04:18:17.314Z,100943.41
2023-02-23T04:20:43.770Z,100946.66
2023-02-23T04:23:10.380Z,100944.00
2023-02-23T04:25:37.003Z,100955.47
2023-02-23T04:28:03.580Z,100958.84
2023-02-23T04:30:30.357Z,100956.06
2023-02-23T04:32:57.035Z,100953.41
2023-02-23T04:35:23.798Z,100955.34
2023-02-23T04:37:50.186Z,100931.06
2023-02-23T04:40:16.750Z,100954.00
2023-02-23T04:42:43.203Z,100952.44
2023-02-23T04:45:10.943Z,100951.34
2023-02-23T04:47:37.704Z,100954.13
2023-02-23T04:50:04.625Z,100964.78
2023-02-23T04:52:31.428Z,100948.81
2023-02-23T04:54:57.891Z,100940.72
2023-02-23T04:57:24.320Z,100930.88
2023-02-23T04:59:50.768Z,100929.50
2023-02-23T05:02:17.139Z,100957.63
2023-02-23T05:04:44.056Z,100954.69
2023-02-23T05:07:10.667Z,100945.31
2023-02-23T05:09:37.078Z,100946.47
2023-02-23T05:12:03.855Z,100918.47
2023-02-23T05:14:30.263Z,100954.06
2023-02-23T05:16:56.649Z,100912.44
2023-02-23T05:19:23.158Z,100945.22
2023-02-23T05:21:50.632Z,100918.22
2023-02-23T05:24:18.375Z,100938.47
2023-02-23T05:26:45.552Z,100954.72
2023-02-23T05:29:12.510Z,100950.94
2023-02-23T05:31:39.018Z,100960.50
2023-02-23T05:34:05.499Z,100927.31
2023-02-23T05:36:31.893Z,100957.41
2023-02-23T05:38:58.306Z,100944.41
2023-02-23T05:41:25.015Z,100958.28
2023-02-23T05:43:52.741Z,100946.38
2023-02-23T05:46:22.342Z,100948.66
2023-02-23T05:48:48.945Z,100916.00
2023-02-23T05:51:16.965Z,100937.81
2023-02-23T05:53:44.535Z,100952.47
2023-02-23T05:56:20.179Z,100928.00
2023-02-23T05:58:57.830Z,100943.94
2023-02-23T06:01:25.750Z,100960.78
2023-02-23T06:03:52.198Z,100957.16
2023-02-23T06:06:18.932Z,100959.09
2023-02-23T06:08:45.571Z,100953.91
2023-02-23T06:11:12.175Z,100969.38
2023-02-23T06:13:44.940Z,100955.59
2023-02-23T06:16:11.503Z,100976.09
2023-02-23T06:18:37.995Z,100944.78
2023-02-23T06:21:05.676Z,100983.13
2023-02-23T06:23:33.238Z,100977.94
2023-02-23T06:26:00.157Z,100983.84
2023-02-23T06:28:27.903Z,100983.84
2023-02-23T06:30:55.129Z,100982.16
2023-02-23T06:33:22.495Z,100980.91
2023-02-23T06:35:49.331Z,101000.28
2023-02-23T06:38:15.785Z,100993.97
2023-02-23T06:40:43.089Z,101001.72
2023-02-23T06:43:09.690Z,100998.94
2023-02-23T06:45:36.248Z,100996.94
2023-02-23T06:48:02.663Z,100952.22
2023-02-23T06:50:29.120Z,101003.69
2023-02-23T06:52:57.590Z,100993.59
2023-02-23T06:55:24.756Z,101000.06
2023-02-23T06:57:54.145Z,101008.66
2023-02-23T07:00:21.193Z,101012.88
2023-02-23T07:02:47.721Z,101007.81
2023-02-23T07:05:14.367Z,101014.69
2023-02-23T07:07:40.895Z,101009.63
2023-02-23T07:10:07.742Z,101026.75
2023-02-23T07:12:34.241Z,101012.16
2023-02-23T07:15:00.664Z,101019.72
2023-02-23T07:17:27.111Z,101009.75
2023-02-23T07:19:53.689Z,100988.25
2023-02-23T07:22:20.181Z,101025.38
2023-02-23T07:24:46.772Z,100998.63
2023-02-23T07:27:13.341Z,101021.28
2023-02-23T07:29:40.300Z,101023.25
2023-02-23T07:32:07.577Z,101026.63
2023-02-23T07:34:34.084Z,101029.16
2023-02-23T07:37:00.557Z,101026.63
2023-02-23T07:39:27.273Z,101021.59
2023-02-23T07:41:53.788Z,101039.88
2023-02-23T07:44:20.268Z,101002.84
2023-02-23T07:46:46.769Z,100995.25
2023-02-23T07:49:13.917Z,101046.91
2023-02-23T07:51:41.290Z,101018.91
2023-02-23T07:54:07.948Z,101016.78
2023-02-23T07:56:35.582Z,101054.91
2023-02-23T07:59:02.974Z,101061.06
2023-02-23T08:01:29.648Z,101055.72
2023-02-23T08:03:56.134Z,101047.81
2023-02-23T08:06:22.595Z,101068.38
2023-02-23T08:08:49.116Z,101051.47
2023-02-23T08:11:15.884Z,101013.34
2023-02-23T08:13:42.678Z,101029.78
2023-02-23T08:16:09.193Z,101067.66
2023-02-23T08:18:35.681Z,101072.00
2023-02-23T08:21:03.957Z,101071.88
2023-02-23T08:23:31.962Z,101067.66
2023-02-23T08:25:59.695Z,101070.00
2023-02-23T08:28:27.541Z,101076.63
2023-02-23T08:30:54.850Z,101071.44
2023-02-23T08:33:22.106Z,101071.56
2023-02-23T08:35:48.709Z,101081.25
2023-02-23T08:38:16.393Z,101080.53
2023-02-23T08:40:43.232Z,101084.75
2023-02-23T08:43:10.072Z,101081.50
2023-02-23T08:45:38.709Z,101067.47
2023-02-23T08:48:06.464Z,101066.59
2023-02-23T08:50:33.003Z,101087.28
2023-02-23T08:52:59.405Z,101069.94
2023-02-23T08:55:25.816Z,101082.09
2023-02-23T08:57:52.198Z,101034.53
2023-02-23T09:00:19.276Z,101087.28
2023-02-23T09:02:48.450Z,101073.97
2023-02-23T09:05:15.553Z,101086.31
2023-02-23T09:07:44.949Z,101082.22
2023-02-23T09:10:16.644Z,101082.22
2023-02-23T09:12:43.067Z,101050.25
2023-02-23T09:15:10.110Z,101085.69
2023-02-23T09:17:36.628Z,101084.25
2023-02-23T09:20:04.895Z,101061.22
2023-02-23T09:22:32.002Z,101070.72
2023-02-23T09:24:58.416Z,101086.44
2023-02-23T09:27:25.126Z,101090.34
2023-02-23T09:29:53.064Z,101093.16
2023-02-23T09:32:19.733Z,101093.41
2023-02-23T09:34:48.595Z,101099.84
2023-02-23T09:37:16.000Z,101099.00
2023-02-23T09:39:43.554Z,101083.53
2023-02-23T09:42:25.904Z,101094.31
2023-02-23T09:45:11.962Z,101088.97
2023-02-23T09:48:04.343Z,101099.00
2023-02-23T09:50:34.829Z,101103.50
2023-02-23T09:53:14.663Z,101106.16
2023-02-23T09:55:43.515Z,101104.81
2023-02-23T09:58:21.108Z,101064.94
2023-02-23T10:00:58.838Z,101090.75
2023-02-23T10:03:35.195Z,101077.94
2023-02-23T10:06:06.462Z,101063.84
2023-02-23T10:09:11.020Z,101111.63
2023-02-23T10:11:44.284Z,101113.56
2023-02-23T10:14:35.216Z,101111.75
2023-02-23T10:17:18.556Z,101115.53
2023-02-23T10:19:53.752Z,101115.78
2023-02-23T10:22:20.872Z,101088.53
2023-02-23T10:24:55.737Z,101093.94
2023-02-23T10:27:29.273Z,101123.34
2023-02-23T10:29:57.676Z,101117.16
2023-02-23T10:32:45.795Z,101120.66
2023-02-23T10:35:15.532Z,101124.31
2023-02-23T10:37:42.142Z,101121.91
2023-02-23T10:40:16.170Z,101094.00
2023-02-23T10:42:42.706Z,101132.44
2023-02-23T10:45:18.636Z,101125.13
2023-02-23T10:47:46.836Z,101133.84
2023-02-23T10:50:14.189Z,101132.38
2023-02-23T10:52:45.365Z,101139.78
2023-02-23T10:55:30.122Z,101137.00
2023-02-23T10:58:09.977Z,101125.06
2023-02-23T11:00:40.459Z,101127.91
2023-02-23T11:03:19.261Z,101135.41
2023-02-23T11:05:50.408Z,101125.91
2023-02-23T11:08:29.171Z,101125.00
2023-02-23T11:11:00.702Z,101125.22
2023-02-23T11:13:40.368Z,101086.88
2023-02-23T11:16:10.315Z,101124.06
2023-02-23T11:18:39.105Z,101118.72
2023-02-23T11:21:11.076Z,101076.06
2023-02-23T11:23:40.159Z,101105.63
2023-02-23T11:26:23.094Z,101114.63
2023-02-23T11:28:56.370Z,101069.31
2023-02-23T11:31:29.993Z,101108.59
2023-02-23T11:33:58.200Z,101114.53
2023-02-23T11:36:24.658Z,101104.28
2023-02-23T11:39:11.309Z,101111.47
2023-02-23T11:41:37.832Z,101099.56
2023-02-23T11:44:06.401Z,101111.22
2023-02-23T11:46:37.947Z,101105.78
2023-02-23T11:49:09.049Z,101111.53
2023-02-23T11:51:39.002Z,101109.19
2023-02-23T11:54:10.270Z,101106.94
2023-02-23T11:56:36.966Z,101100.44
2023-02-23T11:59:15.432Z,101101.16
2023-02-23T12:01:48.003Z,101050.97
2023-02-23T12:04:40.522Z,101086.28
2023-02-23T12:07:41.781Z,101101.88
2023-02-23T12:10:26.568Z,101089.22
2023-02-23T12:13:05.175Z,101099.66
2023-02-23T12:15:36.282Z,101044.47
2023-02-23T12:18:38.116Z,101089.50
2023-02-23T12:21:15.483Z,101095.41
2023-02-23T12:23:46.449Z,101085.81
2023-02-23T12:26:21.593Z,101099.19
2023-02-23T12:28:58.646Z,101060.66
2023-02-23T12:31:44.107Z,101099.34
2023-02-23T12:34:55.148Z,101056.44
2023-02-23T12:37:29.245Z,101098.75
2023-02-23T12:40:25.430Z,101079.81
2023-02-23T12:43:22.954Z,101098.63
2023-02-23T12:46:00.195Z,101096.50
2023-02-23T12:48:38.725Z,101103.69
2023-02-23T12:51:44.518Z,101090.75
2023-02-23T12:54:12.728Z,101100.72
2023-02-23T12:56:51.336Z,101099.03
2023-02-23T12:59:51.857Z,101095.25
2023-02-23T13:02:43.640Z,101096.94
2023-02-23T13:05:31.251Z,101098.50
2023-02-23T13:08:13.879Z,101088.22
2023-02-23T13:10:52.761Z,101090.75
2023-02-23T13:13:58.341Z,101087.28
2023-02-23T13:16:34.114Z,101078.53
2023-02-23T13:19:28.651Z,101083.19
2023-02-23T13:22:00.012Z,101083.63
2023-02-23T13:24:31.760Z,101074.59
2023-02-23T13:27:18.100Z,101073.63
2023-02-23T13:29:49.883Z,101076.84
2023-02-23T13:32:22.360Z,101031.88
2023-02-23T13:35:04.592Z,101077.00
2023-02-23T13:37:43.215Z,101077.69
2023-02-23T13:40:31.202Z,101076.56
2023-02-23T13:43:07.639Z,101068.44
2023-02-23T13:46:01.859Z,101074.03
2023-02-23T13:48:55.513Z,101074.59
2023-02-23T13:51:37.540Z,101074.47
2023-02-23T13:54:16.442Z,101069.97
2023-02-23T13:56:53.019Z,101080.38
2023-02-23T13:59:22.357Z,101070.69
2023-02-23T14:01:54.592Z,101065.06
2023-02-23T14:04:36.973Z,101077.28
2023-02-23T14:07:09.334Z,101076.59
2023-02-23T14:09:40.996Z,101081.50
2023-02-23T14:12:10.422Z,101080.66
2023-02-23T14:14:37.255Z,101088.66
2023-02-23T14:17:15.753Z,101080.34
2023-02-23T14:20:06.249Z,101084.03
2023-02-23T14:22:34.759Z,101079.66
2023-02-23T14:25:32.180Z,101075.16
2023-02-23T14:28:06.818Z,101040.03
2023-02-23T14:30:52.270Z,101009.25
2023-02-23T14:34:00.805Z,101071.25
2023-02-23T14:36:27.133Z,101067.28
2023-02-23T14:38:56.270Z,101068.13
2023-02-23T14:41:55.997Z,101071.94
2023-02-23T14:44:31.070Z,101064.75
2023-02-23T14:47:15.622Z,101064.63
2023-02-23T14:49:47.052Z,101064.47
2023-02-23T14:52:25.692Z,101073.50
2023-02-23T14:54:53.209Z,101075.47
2023-02-23T14:57:24.822Z,101077.16
2023-02-23T14:59:57.440Z,101080.09
2023-02-23T15:02:26.129Z,101084.72
2023-02-23T15:04:52.822Z,101076.84
2023-02-23T15:07:35.229Z,101074.59
2023-02-23T15:10:08.142Z,101071.50
2023-02-23T15:12:37.837Z,101050.00
2023-02-23T15:15:13.805Z,101079.53
2023-02-23T15:17:43.920Z,101080.50
2023-02-23T15:20:23.263Z,101046.75
2023-02-23T15:22:55.124Z,101077.53
2023-02-23T15:25:26.021Z,101085.81
2023-02-23T15:27:53.073Z,101064.84
2023-02-23T15:30:32.705Z,101095.78
2023-02-23T15:33:05.165Z,101093.09
2023-02-23T15:35:42.556Z,101097.88
2023-02-23T15:38:17.747Z,101082.38
2023-02-23T15:40:55.348Z,101070.78
2023-02-23T15:43:22.269Z,101074.25
2023-02-23T15:45:54.477Z,101077.19
2023-02-23T15:48:24.654Z,101099.69
2023-02-23T15:50:56.731Z,101091.38
2023-02-23T15:53:29.052Z,101094.44
2023-02-23T15:56:02.864Z,101091.44
2023-02-23T15:58:44.584Z,101090.84
2023-02-23T16:01:24.898Z,101097.56
2023-02-23T16:04:14.541Z,101087.16
2023-02-23T16:07:12.117Z,101083.66
2023-02-23T16:09:39.008Z,101087.50
2023-02-23T16:12:17.443Z,101087.75
2023-02-23T16:14:48.702Z,101090.44
2023-02-23T16:17:45.467Z,101085.81
2023-02-23T16:20:30.572Z,101085.59
2023-02-23T16:22:58.236Z,101100.03
2023-02-23T16:25:27.356Z,101092.44
2023-02-23T16:28:02.424Z,101069.78
2023-02-23T16:30:32.123Z,101096.34
2023-02-23T16:33:22.900Z,101097.31
2023-02-23T16:35:52.614Z,101099.78
2023-02-23T16:38:33.611Z,101099.78
2023-02-23T16:41:00.172Z,101089.88
2023-02-23T16:43:26.935Z,101104.31
2023-02-23T16:45:53.601Z,101113.56
2023-02-23T16:48:20.220Z,101114.91
2023-02-23T16:50:47.720Z,101110.13
2023-02-23T16:53:14.232Z,101128.13
2023-02-23T16:55:46.793Z,101140.13
2023-02-23T16:58:19.620Z,101128.28
2023-02-23T17:00:46.208Z,101130.00
2023-02-23T17:03:25.012Z,101137.03
2023-02-23T17:05:52.309Z,101121.22
2023-02-23T17:08:18.950Z,101141.66
2023-02-23T17:10:48.387Z,101145.88
2023-02-23T17:13:20.946Z,101148.69
2023-02-23T17:15:51.730Z,101146.63
2023-02-23T17:18:26.616Z,101139.63
2023-02-23T17:20:54.500Z,101122.44
2023-02-23T17:23:22.996Z,101149.06
2023-02-23T17:25:49.404Z,101149.06
2023-02-23T17:28:15.863Z,101141.31
2023-02-23T17:30:44.706Z,101147.72
2023-02-23T17:33:11.751Z,101143.63
2023-02-23T17:35:38.778Z,101151.47
2023-02-23T17:38:06.523Z,101123.56
2023-02-23T17:40:36.253Z,101162.47
2023-02-23T17:43:06.247Z,101165.13
2023-02-23T17:45:32.714Z,101153.91
2023-02-23T17:47:59.580Z,101170.59
2023-02-23T17:50:27.414Z,101160.44
2023-02-23T17:52:54.260Z,101136.72
2023-02-23T17:55:22.204Z,101161.28
2023-02-23T17:57:48.726Z,101167.56
2023-02-23T18:00:19.436Z,101129.91
2023-02-23T18:02:46.357Z,101156.66
2023-02-23T18:05:14.844Z,101156.94
2023-02-23T18:07:42.046Z,101155.56
2023-02-23T18:10:09.153Z,101135.13
2023-02-23T18:12:35.638Z,101154.09
2023-02-23T18:15:02.102Z,101143.09
2023-02-23T18:17:28.541Z,101124.94
2023-02-23T18:19:54.984Z,101148.41
2023-02-23T18:22:21.419Z,101139.31
2023-02-23T18:24:47.964Z,101082.88
2023-02-23T18:27:14.746Z,101163.63
2023-02-23T18:29:41.127Z,101123.25
2023-02-23T18:32:08.077Z,101141.75
2023-02-23T18:34:35.182Z,101149.22
2023-02-23T18:37:03.518Z,101140.25
2023-02-23T18:39:31.843Z,101165.88
2023-02-23T18:41:59.605Z,101149.28
2023-02-23T18:44:26.863Z,101165.78
2023-02-23T18:46:54.868Z,101154.72
2023-02-23T18:49:24.457Z,101159.44
2023-02-23T18:51:51.206Z,101166.47
2023-02-23T18:54:18.532Z,101151.56
2023-02-23T18:56:47.292Z,101155.75
2023-02-23T18:59:14.717Z,101137.28
2023-02-23T19:01:45.142Z,101175.44
2023-02-23T19:04:12.558Z,101165.47
2023-02-23T19:06:42.361Z,101166.75
2023-02-23T19:09:12.298Z,101157.66
2023-02-23T19:11:39.170Z,101166.78
2023-02-23T19:14:08.910Z,101159.38
2023-02-23T19:16:36.006Z,101157.16
2023-02-23T19:19:07.561Z,101163.84
2023-02-23T19:21:34.315Z,101161.72
2023-02-23T19:24:02.359Z,101153.78
2023-02-23T19:26:29.986Z,101165.13
2023-02-23T19:28:57.158Z,101087.72
2023-02-23T19:31:25.982Z,101155.69
2023-02-23T19:33:55.859Z,101151.66
2023-02-23T19:36:29.341Z,101160.69
2023-02-23T19:39:06.024Z,101158.34
2023-02-23T19:41:33.988Z,101153.47
2023-02-23T19:44:00.926Z,101146.03
2023-02-23T19:46:27.937Z,101155.03
2023-02-23T19:48:54.915Z,101155.47
2023-02-23T19:51:22.924Z,101154.13
2023-02-23T19:53:49.730Z,101150.13
2023-02-23T19:56:16.971Z,101156.78
2023-02-23T19:58:46.654Z,101158.88
2023-02-23T20:01:19.366Z,101140.31
2023-02-23T20:03:55.437Z,101156.84
2023-02-23T20:06:25.002Z,101151.84
2023-02-23T20:08:52.614Z,101152.16
2023-02-23T20:11:19.865Z,101116.53
2023-02-23T20:13:46.651Z,101164.97
2023-02-23T20:16:14.959Z,101142.53
2023-02-23T20:18:43.972Z,101155.78
2023-02-23T20:21:19.681Z,101158.78
2023-02-23T20:23:47.084Z,101155.81
2023-02-23T20:26:19.035Z,101151.06
2023-02-23T20:28:45.781Z,101149.78
2023-02-23T20:31:18.428Z,101161.88
2023-02-23T20:33:44.991Z,101115.56
2023-02-23T20:36:12.101Z,101160.31
2023-02-23T20:38:38.854Z,101120.16
2023-02-23T20:41:05.464Z,101161.53
2023-02-23T20:43:31.920Z,101158.66
2023-02-23T20:46:01.563Z,101134.59
2023-02-23T20:48:31.295Z,101160.69
2023-02-23T20:50:58.575Z,101152.53
2023-02-23T20:53:26.254Z,101139.88
2023-02-23T20:55:54.005Z,101151.47
2023-02-23T20:58:25.033Z,101149.53
2023-02-23T21:01:02.557Z,101138.09
2023-02-23T21:03:29.280Z,101144.22
2023-02-23T21:05:55.912Z,101145.63
2023-02-23T21:08:22.339Z,101146.34
2023-02-23T21:10:50.249Z,101151.66
2023-02-23T21:13:18.641Z,101150.72
2023-02-23T21:15:45.313Z,101142.56
2023-02-23T21:18:12.243Z,101096.53
2023-02-23T21:20:39.695Z,101080.13
2023-02-23T21:23:06.205Z,101138.59
2023-02-23T21:25:32.956Z,101120.91
2023-02-23T21:28:01.775Z,101130.34
2023-02-23T21:30:28.881Z,101105.75
2023-02-23T21:32:56.398Z,101127.56
2023-02-23T21:35:23.377Z,101128.97
2023-02-23T21:37:52.321Z,101138.59
2023-02-23T21:40:23.658Z,101119.91
2023-02-23T21:42:51.351Z,101123.31
2023-02-23T21:45:19.633Z,101124.25
2023-02-23T21:47:46.804Z,101119.50
2023-02-23T21:50:16.371Z,101119.59
2023-02-23T21:52:45.133Z,101115.88
2023-02-23T21:55:21.281Z,101096.06
2023-02-23T21:57:48.113Z,101114.06
2023-02-23T22:00:16.259Z,101111.22
2023-02-23T22:02:46.095Z,101123.91
2023-02-23T22:05:13.602Z,101109.91
2023-02-23T22:07:40.485Z,101120.94
2023-02-23T22:10:07.418Z,101107.56
2023-02-23T22:12:33.864Z,101113.72
2023-02-23T22:15:06.937Z,101103.00
2023-02-23T22:17:33.825Z,101101.78
2023-02-23T22:20:00.485Z,101097.34
2023-02-23T22:22:27.466Z,101094.56
2023-02-23T22:24:53.931Z,101105.06
2023-02-23T22:27:20.528Z,101090.22
2023-02-23T22:29:47.027Z,101063.00
2023-02-23T22:32:13.731Z,101083.84
2023-02-23T22:34:40.351Z,101088.53
2023-02-23T22:37:07.564Z,101045.66
2023-02-23T22:39:33.993Z,101084.44
2023-02-23T22:42:09.080Z,101077.22
2023-02-23T22:44:38.945Z,101078.06
2023-02-23T22:47:06.442Z,101075.88
2023-02-23T22:49:34.592Z,101066.88
2023-02-23T22:52:01.103Z,101063.06
2023-02-23T22:54:27.624Z,101063.16
2023-02-23T22:56:55.061Z,101064.13
2023-02-23T22:59:21.612Z,101057.13
2023-02-23T23:01:50.093Z,101051.97
2023-02-23T23:04:17.198Z,101052.91
2023-02-23T23:06:43.758Z,101025.72
2023-02-23T23:09:12.127Z,101056.53
2023-02-23T23:11:41.723Z,101050.28
2023-02-23T23:14:10.299Z,101047.47
2023-02-23T23:16:47.826Z,101043.38
2023-02-23T23:19:18.153Z,101029.59
2023-02-23T23:21:45.980Z,101036.19
2023-02-23T23:24:13.383Z,101024.97
2023-02-23T23:26:41.017Z,101011.63
2023-02-23T23:29:11.207Z,101015.00
2023-02-23T23:31:38.591Z,101010.13
2023-02-23T23:34:09.427Z,101003.78
2023-02-23T23:36:42.939Z,101004.22
2023-02-23T23:39:15.944Z,101000.22
2023-02-23T23:41:47.791Z,101001.06
2023-02-23T23:44:17.014Z,100996.59
2023-02-23T23:46:45.055Z,100983.56
2023-02-23T23:49:15.795Z,100993.22
2023-02-23T23:51:45.345Z,100984.53
2023-02-23T23:54:21.705Z,100961.25
2023-02-23T23:56:49.473Z,100980.72
2023-02-23T23:59:17.660Z,100972.53
